Time;durP1;ratioP1;P1;durP2;ratioP2;P2;SDS_P1;SDS_P2;PMS_P1;PMS_P2;Temp;Humidity;BMP_temperature;BMP_pressure;BME280_temperature;BME280_humidity;BME280_pressure;Samples;Min_cycle;Max_cycle;Signal;HPM_P1;HPM_P2
2022/02/04 00:08:14;;;;;;;1.43;1.33;;;1.70;99.90;;;;;;6275901;28;20438;-76
2022/02/04 00:21:47;;;;;;;1.47;1.37;;;1.80;99.90;;;;;;6310952;28;20286;-76
2022/02/04 00:24:52;;;;;;;3.10;1.33;;;1.90;99.90;;;;;;6310378;28;20584;-76
2022/02/04 00:28:02;;;;;;;2.03;1.20;;;1.90;99.90;;;;;;6310047;28;20305;-76
2022/02/04 00:31:22;;;;;;;1.07;1.07;;;1.90;99.90;;;;;;6310340;28;20293;-76
2022/02/04 00:34:34;;;;;;;2.00;1.20;;;1.90;99.90;;;;;;6310454;28;20291;-76
2022/02/04 00:37:54;;;;;;;2.30;1.53;;;1.90;99.90;;;;;;6310438;28;20293;-76
2022/02/04 00:41:05;;;;;;;1.90;1.40;;;1.90;99.90;;;;;;6310369;28;20285;-76
2022/02/04 00:44:19;;;;;;;3.03;1.50;;;1.90;99.90;;;;;;6310881;28;20329;-76
2022/02/04 00:47:27;;;;;;;1.40;1.37;;;2.00;99.90;;;;;;6310129;28;20298;-76
2022/02/04 00:50:38;;;;;;;1.27;1.23;;;1.90;99.90;;;;;;6311206;28;20293;-77
2022/02/04 00:53:53;;;;;;;2.03;1.20;;;1.90;99.90;;;;;;6310941;28;20298;-77
2022/02/04 00:57:09;;;;;;;2.20;1.20;;;2.00;99.90;;;;;;6311106;28;20273;-77
2022/02/04 01:27:27;;;;;;;1.60;1.50;;;2.00;99.90;;;;;;6312630;28;20472;-76
2022/02/04 01:30:34;;;;;;;2.00;1.10;;;2.00;99.90;;;;;;6315038;28;20291;-76
2022/02/04 01:33:40;;;;;;;1.53;1.43;;;2.00;99.90;;;;;;6314083;28;20298;-76
2022/02/04 01:36:45;;;;;;;1.40;1.30;;;2.00;99.90;;;;;;6314977;28;20273;-76
2022/02/04 01:39:51;;;;;;;2.00;1.10;;;2.00;99.90;;;;;;6313428;28;20297;-76
2022/02/04 01:42:58;;;;;;;1.27;1.10;;;2.00;99.90;;;;;;6313957;28;20295;-76
2022/02/04 01:46:05;;;;;;;4.30;1.20;;;2.00;99.90;;;;;;6314277;28;20276;-76
2022/02/04 01:49:11;;;;;;;2.03;1.10;;;2.00;99.90;;;;;;6313607;28;20464;-76
2022/02/04 01:52:17;;;;;;;1.07;1.07;;;2.00;99.90;;;;;;6313217;28;20290;-76
2022/02/04 01:55:23;;;;;;;1.30;1.30;;;2.00;99.90;;;;;;6313600;28;20323;-76
2022/02/04 01:58:30;;;;;;;1.10;1.00;;;2.00;99.90;;;;;;6295341;28;20299;-76
2022/02/04 02:01:36;;;;;;;1.43;1.10;;;2.00;99.90;;;;;;6313465;28;20302;-76
2022/02/04 02:04:41;;;;;;;1.00;1.00;;;2.10;99.90;;;;;;6313708;28;20297;-76
2022/02/04 02:07:48;;;;;;;1.27;1.13;;;2.10;99.90;;;;;;6313852;28;20291;-76
2022/02/04 02:10:53;;;;;;;2.23;1.10;;;2.00;99.90;;;;;;6314302;28;20290;-77
2022/02/04 02:14:02;;;;;;;0.93;0.93;;;2.10;99.90;;;;;;6313476;28;20299;-77
2022/02/04 02:34:42;;;;;;;1.80;1.10;;;2.10;99.90;;;;;;6313108;28;20308;-75
2022/02/04 02:44:38;;;;;;;0.93;0.93;;;2.10;99.90;;;;;;6312044;28;20294;-75
2022/02/04 02:47:54;;;;;;;1.10;1.10;;;2.10;99.90;;;;;;6312830;28;20299;-76
2022/02/04 02:51:31;;;;;;;1.10;1.10;;;2.10;99.90;;;;;;6312768;28;20266;-75
2022/02/04 02:58:14;;;;;;;1.20;1.10;;;2.10;99.90;;;;;;6327568;28;20294;-75
2022/02/04 03:01:19;;;;;;;1.10;1.10;;;2.20;99.90;;;;;;6311653;28;20592;-76
2022/02/04 03:04:25;;;;;;;1.00;1.00;;;2.10;99.90;;;;;;6312105;28;20295;-75
2022/02/04 03:07:30;;;;;;;1.40;1.23;;;2.20;99.90;;;;;;6311627;28;20296;-75
2022/02/04 03:10:35;;;;;;;1.17;1.17;;;2.10;99.90;;;;;;6313079;28;20274;-75
2022/02/04 03:13:43;;;;;;;1.30;1.20;;;2.20;99.90;;;;;;6312171;28;20321;-76
2022/02/04 03:16:48;;;;;;;1.40;1.40;;;2.20;99.90;;;;;;6311786;28;20268;-76
2022/02/04 03:19:57;;;;;;;1.20;1.20;;;2.20;99.90;;;;;;6311785;28;20290;-76
2022/02/04 03:23:02;;;;;;;1.20;1.20;;;2.20;99.90;;;;;;6311314;28;20303;-76
2022/02/04 03:26:13;;;;;;;1.37;1.10;;;2.20;99.90;;;;;;6312012;28;20266;-76
2022/02/04 03:29:25;;;;;;;1.70;1.60;;;2.20;99.90;;;;;;6311068;28;20309;-77
2022/02/04 03:32:31;;;;;;;1.20;1.20;;;2.30;99.90;;;;;;6311107;28;20296;-76
2022/02/04 03:35:37;;;;;;;1.30;1.30;;;2.20;99.90;;;;;;6311017;28;20272;-76
2022/02/04 03:38:42;;;;;;;1.20;1.20;;;2.30;99.90;;;;;;6311265;28;20295;-76
2022/02/04 03:41:48;;;;;;;1.37;1.37;;;2.30;99.90;;;;;;6311061;28;20270;-76
2022/02/04 03:44:54;;;;;;;1.13;1.13;;;2.30;99.90;;;;;;6311385;28;20293;-76
2022/02/04 03:48:00;;;;;;;2.67;1.33;;;2.30;99.90;;;;;;6311661;28;20377;-76
2022/02/04 03:51:06;;;;;;;1.40;1.40;;;2.30;99.90;;;;;;6311628;28;20448;-76
2022/02/04 03:54:12;;;;;;;1.30;1.30;;;2.40;99.90;;;;;;6311391;28;20305;-76
2022/02/04 03:57:17;;;;;;;1.47;1.43;;;2.40;99.90;;;;;;6310909;28;20286;-76
2022/02/04 04:00:23;;;;;;;2.53;1.60;;;2.40;99.90;;;;;;6311834;28;20454;-76
2022/02/04 04:03:29;;;;;;;1.60;1.60;;;2.40;99.90;;;;;;6307819;28;20295;-76
2022/02/04 04:06:34;;;;;;;1.73;1.50;;;2.40;99.90;;;;;;6310761;28;20275;-76
2022/02/04 04:09:45;;;;;;;1.37;1.37;;;2.40;99.90;;;;;;6311287;28;20309;-76
2022/02/04 04:12:51;;;;;;;1.60;1.50;;;2.50;99.90;;;;;;6285669;28;20310;-75
2022/02/04 04:15:57;;;;;;;1.57;1.47;;;2.50;99.90;;;;;;6286728;28;20446;-75
2022/02/04 04:19:04;;;;;;;1.90;1.60;;;2.50;99.90;;;;;;6291320;28;20307;-75
2022/02/04 04:22:09;;;;;;;1.60;1.60;;;2.50;99.90;;;;;;6309911;28;20276;-76
2022/02/04 04:25:15;;;;;;;1.87;1.77;;;2.50;99.90;;;;;;6310579;28;20273;-75
2022/02/04 04:28:21;;;;;;;3.13;1.80;;;2.50;99.90;;;;;;6310778;28;20294;-75
2022/02/04 04:31:27;;;;;;;1.67;1.60;;;2.50;99.90;;;;;;6311022;28;20275;-75
2022/02/04 04:34:32;;;;;;;1.83;1.73;;;2.60;99.90;;;;;;6310177;28;20299;-76
2022/02/04 04:37:42;;;;;;;2.10;2.00;;;2.60;99.90;;;;;;6310523;28;20282;-76
2022/02/04 04:41:17;;;;;;;3.30;1.77;;;2.60;99.90;;;;;;6310691;28;20268;-75
2022/02/04 04:45:14;;;;;;;1.80;1.80;;;2.60;99.90;;;;;;6311632;28;20297;-75
2022/02/04 05:26:17;;;;;;;2.50;2.30;;;2.70;99.90;;;;;;6314703;28;20277;-76
2022/02/04 05:29:24;;;;;;;2.37;2.30;;;2.70;99.90;;;;;;6314402;28;20298;-76
2022/02/04 05:32:29;;;;;;;2.50;2.50;;;2.70;99.90;;;;;;6313910;28;20295;-76
2022/02/04 05:35:36;;;;;;;2.60;2.10;;;2.80;99.90;;;;;;6314744;28;20293;-76
2022/02/04 05:38:42;;;;;;;2.43;2.20;;;2.80;99.90;;;;;;6314189;28;20295;-76
2022/02/04 05:41:49;;;;;;;2.60;2.50;;;2.80;99.90;;;;;;6314934;28;20273;-76
2022/02/04 05:45:00;;;;;;;2.50;2.30;;;2.70;99.90;;;;;;6313597;28;20298;-76
2022/02/04 05:48:06;;;;;;;2.53;2.33;;;2.80;99.90;;;;;;6314202;28;20298;-76
2022/02/04 05:51:31;;;;;;;3.10;2.83;;;2.80;99.90;;;;;;6314447;28;20275;-76
2022/02/04 05:54:48;;;;;;;2.90;2.27;;;2.80;99.90;;;;;;6313357;28;20298;-76
2022/02/04 05:58:00;;;;;;;3.97;2.60;;;2.80;99.90;;;;;;6313782;28;20305;-76
2022/02/04 06:01:28;;;;;;;5.50;2.50;;;2.80;99.90;;;;;;6313918;28;20273;-77
2022/02/04 06:04:43;;;;;;;3.37;2.30;;;2.80;99.90;;;;;;6314072;28;20337;-77
2022/02/04 06:08:15;;;;;;;4.17;2.87;;;2.90;99.90;;;;;;6312961;28;20567;-76
2022/02/04 06:11:32;;;;;;;2.37;2.13;;;2.90;99.90;;;;;;6313129;28;20464;-76
2022/02/04 06:14:50;;;;;;;4.30;2.67;;;2.90;99.90;;;;;;6312716;28;20304;-76
2022/02/04 06:24:41;;;;;;;2.57;2.43;;;2.90;99.90;;;;;;6313613;28;20302;-77
2022/02/04 06:27:48;;;;;;;2.90;2.70;;;3.00;99.90;;;;;;6313091;28;20362;-76
2022/02/04 06:30:53;;;;;;;2.73;2.63;;;3.00;99.90;;;;;;6312465;28;20482;-76
2022/02/04 06:33:58;;;;;;;2.63;2.53;;;3.00;99.90;;;;;;6312268;28;20303;-76
2022/02/04 06:37:04;;;;;;;3.37;3.17;;;3.00;99.90;;;;;;6312775;28;20543;-77
2022/02/04 06:40:12;;;;;;;2.97;2.77;;;3.00;99.90;;;;;;6312471;28;20453;-76
2022/02/04 06:43:19;;;;;;;4.03;3.40;;;3.00;99.90;;;;;;6311825;28;20292;-77
2022/02/04 06:46:24;;;;;;;4.20;3.27;;;3.00;99.90;;;;;;6312377;28;20274;-77
2022/02/04 06:49:29;;;;;;;2.93;2.73;;;3.00;99.90;;;;;;6312538;28;20289;-75
2022/02/04 06:52:34;;;;;;;8.40;3.47;;;3.10;99.90;;;;;;6312263;28;20427;-77
2022/02/04 06:55:40;;;;;;;3.40;3.17;;;3.00;99.90;;;;;;6312724;28;20446;-76
2022/02/04 06:58:47;;;;;;;5.53;3.70;;;3.10;99.90;;;;;;6312115;28;20323;-76
2022/02/04 07:01:52;;;;;;;5.13;3.50;;;3.10;99.90;;;;;;6312187;28;20590;-76
2022/02/04 07:04:57;;;;;;;3.67;3.33;;;3.10;99.90;;;;;;6311643;28;20283;-76
2022/02/04 07:08:08;;;;;;;3.40;3.20;;;3.10;99.90;;;;;;6310986;28;20295;-76
2022/02/04 07:11:35;;;;;;;4.77;3.83;;;3.10;99.90;;;;;;6310458;28;20267;-76
2022/02/04 07:14:52;;;;;;;5.30;3.33;;;3.10;99.90;;;;;;6312636;28;20299;-76
2022/02/04 07:19:44;;;;;;;3.83;3.43;;;3.20;99.90;;;;;;6312528;28;20306;-78
2022/02/04 07:21:27;;;;;;;5.60;4.00;;;3.10;99.90;;;;;;6314165;28;20540;-77
2022/02/04 07:24:33;;;;;;;4.93;4.00;;;3.10;99.90;;;;;;6312908;28;20295;-77
2022/02/04 07:27:40;;;;;;;8.47;4.70;;;3.20;99.90;;;;;;6313438;28;20297;-78
2022/02/04 07:31:06;;;;;;;4.43;4.13;;;3.20;99.90;;;;;;6311609;28;20272;-75
2022/02/04 07:34:19;;;;;;;5.23;3.90;;;3.20;99.90;;;;;;6311170;28;20294;-76
2022/02/04 07:40:57;;;;;;;4.77;4.37;;;3.20;99.90;;;;;;6311695;28;20275;-75
2022/02/04 07:44:02;;;;;;;5.43;4.30;;;3.30;99.90;;;;;;6311388;28;20307;-76
2022/02/04 07:47:12;;;;;;;5.30;4.57;;;3.20;99.90;;;;;;6311423;28;20279;-77
2022/02/04 07:50:20;;;;;;;6.83;4.53;;;3.30;99.90;;;;;;6311300;28;20273;-76
2022/02/04 07:53:30;;;;;;;7.17;5.17;;;3.30;99.90;;;;;;6310807;28;20297;-75
2022/02/04 07:56:36;;;;;;;5.40;4.73;;;3.30;99.90;;;;;;6310379;28;20296;-75
2022/02/04 07:59:43;;;;;;;6.23;4.90;;;3.30;99.90;;;;;;6310652;28;20296;-75
2022/02/04 08:02:51;;;;;;;7.67;5.40;;;3.30;99.90;;;;;;6310772;28;20443;-76
2022/02/04 08:06:01;;;;;;;10.77;6.07;;;3.30;99.90;;;;;;6311601;28;20296;-75
2022/02/04 08:09:15;;;;;;;10.07;5.67;;;3.30;99.90;;;;;;6310735;28;20295;-75
2022/02/04 08:12:36;;;;;;;6.87;5.33;;;3.40;99.90;;;;;;6309991;28;20300;-76
2022/02/04 08:15:55;;;;;;;7.17;4.67;;;3.40;99.90;;;;;;6310839;28;20292;-76
2022/02/04 08:19:31;;;;;;;9.63;5.17;;;3.40;99.90;;;;;;6312999;28;20297;-75
2022/02/04 08:22:59;;;;;;;5.83;5.03;;;3.40;99.90;;;;;;6314899;28;20299;-75
2022/02/04 08:26:19;;;;;;;5.90;4.97;;;3.40;99.90;;;;;;6316642;28;20279;-75
2022/02/04 08:33:28;;;;;;;4.70;4.33;;;3.40;99.90;;;;;;6214635;28;20591;-76
2022/02/04 08:47:14;;;;;;;74.40;46.27;;;3.50;99.90;;;;;;6315900;28;20444;-75
2022/02/04 08:54:10;;;;;;;8.90;5.60;;;3.50;99.90;;;;;;6290931;28;20299;-75
2022/02/04 08:57:28;;;;;;;7.67;5.30;;;3.50;99.90;;;;;;6314926;28;20426;-75
2022/02/04 09:00:42;;;;;;;8.27;5.57;;;3.60;99.90;;;;;;6315199;28;20269;-75
2022/02/04 09:04:02;;;;;;;6.93;4.70;;;3.50;99.90;;;;;;6314708;28;20309;-75
2022/02/04 09:07:12;;;;;;;7.43;5.07;;;3.50;99.90;;;;;;6313719;28;20275;-74
2022/02/04 09:10:23;;;;;;;7.67;5.03;;;3.60;99.90;;;;;;6314338;28;20269;-75
2022/02/04 09:17:00;;;;;;;11.60;4.80;;;3.60;99.90;;;;;;6314935;28;20311;-76
2022/02/04 09:20:11;;;;;;;8.63;5.37;;;3.60;99.90;;;;;;6313522;28;20276;-75
2022/02/04 09:23:16;;;;;;;9.03;5.40;;;3.60;99.90;;;;;;6313678;28;20323;-77
2022/02/04 09:26:23;;;;;;;7.27;5.47;;;3.60;99.90;;;;;;6314781;28;20559;-76
2022/02/04 09:29:28;;;;;;;7.87;4.90;;;3.60;99.90;;;;;;6314250;28;20304;-77
2022/02/04 09:32:36;;;;;;;7.67;5.40;;;3.70;99.90;;;;;;6314289;28;20295;-77
2022/02/04 09:35:42;;;;;;;11.10;5.40;;;3.60;99.90;;;;;;6314997;28;20290;-77
2022/02/04 09:38:47;;;;;;;7.73;5.30;;;3.70;99.90;;;;;;6314052;28;20301;-77
2022/02/04 09:41:55;;;;;;;9.10;5.40;;;3.70;99.90;;;;;;6315129;28;20270;-76
2022/02/04 09:45:22;;;;;;;6.43;5.40;;;3.70;99.90;;;;;;6314000;28;20277;-76
2022/02/04 09:48:28;;;;;;;7.47;5.27;;;3.70;99.90;;;;;;6314388;28;20301;-77
2022/02/04 09:51:52;;;;;;;6.70;4.80;;;3.70;99.90;;;;;;6315115;28;20266;-77
2022/02/04 10:12:35;;;;;;;7.07;4.87;;;3.90;99.90;;;;;;6308291;28;20270;-77
2022/02/04 10:15:59;;;;;;;8.40;4.87;;;3.90;99.90;;;;;;6313451;28;20457;-77
2022/02/04 10:19:19;;;;;;;5.17;4.63;;;3.90;99.90;;;;;;6313201;28;20306;-77
2022/02/04 10:22:26;;;;;;;7.23;5.00;;;3.90;99.90;;;;;;6313622;28;20385;-77
2022/02/04 10:25:32;;;;;;;9.97;4.83;;;3.90;99.90;;;;;;6312841;28;20274;-77
2022/02/04 10:28:48;;;;;;;8.93;5.33;;;3.90;99.90;;;;;;6313521;28;20301;-77
2022/02/04 10:31:55;;;;;;;6.97;4.63;;;4.00;99.90;;;;;;6313400;28;20287;-76
2022/02/04 10:35:06;;;;;;;7.43;4.97;;;4.00;99.90;;;;;;6312329;28;20287;-75
2022/02/04 10:38:20;;;;;;;8.13;5.53;;;4.00;99.90;;;;;;6312162;28;20541;-76
2022/02/04 10:41:29;;;;;;;7.37;5.10;;;4.00;99.90;;;;;;6312334;28;20553;-76
2022/02/04 10:44:47;;;;;;;6.97;5.53;;;4.00;99.90;;;;;;6312808;28;20297;-76
2022/02/04 10:48:12;;;;;;;8.27;5.47;;;4.10;99.90;;;;;;6311976;28;20298;-76
2022/02/04 10:51:39;;;;;;;6.77;5.57;;;4.10;99.90;;;;;;6312197;28;20269;-76
2022/02/04 10:55:19;;;;;;;9.60;5.43;;;4.10;99.90;;;;;;6311792;28;20592;-76
2022/02/04 10:58:44;;;;;;;7.53;5.93;;;4.10;99.90;;;;;;6312677;28;20301;-76
2022/02/04 11:02:07;;;;;;;10.97;5.10;;;4.10;99.90;;;;;;6312241;28;20302;-76
2022/02/04 11:05:24;;;;;;;8.97;5.53;;;4.10;99.90;;;;;;6311879;28;20350;-76
2022/02/04 11:12:04;;;;;;;8.93;5.63;;;4.10;99.90;;;;;;6309466;28;20422;-76
2022/02/04 11:32:52;;;;;;;6.83;5.50;;;4.10;99.90;;;;;;6310637;28;20273;-77
2022/02/04 11:35:59;;;;;;;9.33;6.07;;;4.10;99.90;;;;;;6312634;28;20463;-78
2022/02/04 11:53:34;;;;;;;9.50;5.53;;;4.20;99.90;;;;;;6311326;28;20302;-77
2022/02/04 11:57:20;;;;;;;6.60;4.80;;;4.20;99.90;;;;;;6312453;28;20274;-77
2022/02/04 12:00:28;;;;;;;7.67;4.70;;;4.20;99.90;;;;;;6310745;28;20290;-77
2022/02/04 12:03:38;;;;;;;6.80;5.33;;;4.20;99.90;;;;;;6310463;28;20326;-77
2022/02/04 12:06:46;;;;;;;9.33;5.40;;;4.20;99.90;;;;;;6311376;28;20201;-77
2022/02/04 12:09:51;;;;;;;7.53;5.10;;;4.20;99.90;;;;;;6310912;28;20306;-76
2022/02/04 12:13:09;;;;;;;6.27;4.80;;;4.20;99.90;;;;;;6310540;28;20291;-76
2022/02/04 12:16:34;;;;;;;5.67;4.63;;;4.20;99.90;;;;;;6311821;28;20271;-76
2022/02/04 12:19:42;;;;;;;8.87;4.80;;;4.20;99.90;;;;;;6310556;28;20303;-76
2022/02/04 12:22:55;;;;;;;6.03;4.17;;;4.20;99.90;;;;;;6310531;28;20572;-77
2022/02/04 12:26:02;;;;;;;5.00;4.30;;;4.20;99.90;;;;;;6311203;28;20269;-76
2022/02/04 12:29:27;;;;;;;4.50;4.23;;;4.10;99.90;;;;;;6310560;28;20305;-76
2022/02/04 12:32:32;;;;;;;3.90;3.50;;;4.20;99.90;;;;;;6310881;28;20297;-77
2022/02/04 12:35:39;;;;;;;3.90;3.50;;;4.20;99.90;;;;;;6310608;28;20280;-76
2022/02/04 12:38:46;;;;;;;3.50;3.20;;;4.20;99.90;;;;;;6309816;28;20601;-77
2022/02/04 12:41:54;;;;;;;4.50;3.30;;;4.20;99.90;;;;;;6311104;28;20274;-77
2022/02/04 12:45:04;;;;;;;3.60;3.30;;;4.20;99.90;;;;;;6309432;28;20593;-77
2022/02/04 12:48:14;;;;;;;3.60;3.40;;;4.20;99.90;;;;;;6310476;28;20472;-76
2022/02/04 12:51:41;;;;;;;2.77;2.60;;;4.20;99.90;;;;;;6310523;28;20278;-78
2022/02/04 12:54:51;;;;;;;3.00;2.90;;;4.20;99.90;;;;;;6310619;28;20300;-76
2022/02/04 12:58:14;;;;;;;3.20;2.90;;;4.30;99.90;;;;;;6310007;28;20305;-76
2022/02/04 13:08:14;;;;;;;2.97;2.87;;;4.30;99.90;;;;;;6314464;28;20310;-76
2022/02/04 13:11:33;;;;;;;3.80;3.10;;;4.40;99.90;;;;;;6314549;28;20266;-77
2022/02/04 13:14:39;;;;;;;3.60;3.30;;;4.30;99.90;;;;;;6314263;28;20300;-77
2022/02/04 13:17:46;;;;;;;3.17;2.90;;;4.40;99.90;;;;;;6314848;28;20425;-77
2022/02/04 13:20:55;;;;;;;3.77;3.47;;;4.40;99.90;;;;;;6314288;28;20298;-76
2022/02/04 13:24:03;;;;;;;4.23;3.23;;;4.30;99.90;;;;;;6314112;28;20306;-77
2022/02/04 13:27:13;;;;;;;3.27;2.97;;;4.30;99.90;;;;;;6314689;28;20267;-77
2022/02/04 13:30:22;;;;;;;2.83;2.63;;;4.30;99.90;;;;;;6314419;28;20280;-76
2022/02/04 13:33:31;;;;;;;3.30;3.13;;;4.30;99.90;;;;;;6314276;28;20297;-76
2022/02/04 13:36:41;;;;;;;2.90;2.80;;;4.30;99.90;;;;;;6314643;28;20273;-77
2022/02/04 13:39:55;;;;;;;3.53;2.90;;;4.30;99.90;;;;;;6313694;28;20302;-76
2022/02/04 13:43:31;;;;;;;2.90;2.70;;;4.30;99.90;;;;;;6313407;28;20306;-76
2022/02/04 13:46:43;;;;;;;2.97;2.80;;;4.30;99.90;;;;;;6314412;28;20317;-76
2022/02/04 13:50:09;;;;;;;2.57;2.43;;;4.20;99.90;;;;;;6313821;28;20305;-76
2022/02/04 13:53:20;;;;;;;3.00;2.80;;;4.20;99.90;;;;;;6312532;28;20315;-76
2022/02/04 13:56:35;;;;;;;2.53;2.43;;;4.20;99.90;;;;;;6314468;28;20273;-76
2022/02/04 13:59:47;;;;;;;2.20;2.20;;;4.10;99.90;;;;;;6313638;28;20302;-76
2022/02/04 14:02:57;;;;;;;2.87;2.77;;;4.10;99.90;;;;;;6313349;28;20301;-76
2022/02/04 14:06:09;;;;;;;2.30;2.30;;;4.10;99.90;;;;;;6313935;28;20270;-76
2022/02/04 14:09:18;;;;;;;2.90;2.80;;;4.10;99.90;;;;;;6313022;28;20297;-75
2022/02/04 14:12:23;;;;;;;2.90;2.80;;;4.00;99.90;;;;;;6312454;28;20624;-76
2022/02/04 14:15:30;;;;;;;2.80;2.70;;;4.10;99.90;;;;;;6313459;28;20267;-76
2022/02/04 14:18:37;;;;;;;3.17;2.97;;;4.00;99.90;;;;;;6312750;28;20464;-76
2022/02/04 14:21:43;;;;;;;3.53;3.07;;;4.00;99.90;;;;;;6312749;28;20377;-75
2022/02/04 14:24:50;;;;;;;3.03;2.83;;;4.00;99.90;;;;;;6313115;28;20297;-76
2022/02/04 14:27:59;;;;;;;2.47;2.40;;;4.00;99.90;;;;;;6313047;28;20292;-75
2022/02/04 14:31:16;;;;;;;3.87;3.00;;;4.00;99.90;;;;;;6312520;28;20272;-75
2022/02/04 14:34:49;;;;;;;3.27;2.50;;;4.00;99.90;;;;;;6312853;28;20300;-75
2022/02/04 15:01:49;;;;;;;4.07;3.80;;;4.00;99.90;;;;;;6296872;28;20305;-76
2022/02/04 15:04:55;;;;;;;3.83;3.53;;;4.00;99.90;;;;;;6305001;28;20290;-75
2022/02/04 15:08:05;;;;;;;3.20;3.00;;;4.00;99.90;;;;;;6312117;28;20307;-76
2022/02/04 15:11:15;;;;;;;4.00;3.70;;;4.00;99.90;;;;;;6297878;28;20270;-75
2022/02/04 15:14:21;;;;;;;3.77;3.53;;;4.00;99.90;;;;;;6285916;28;20397;-77
2022/02/04 15:17:28;;;;;;;3.90;3.60;;;4.00;99.90;;;;;;6286444;28;20298;-76
2022/02/04 15:20:33;;;;;;;3.50;3.30;;;4.00;99.90;;;;;;6287054;28;20293;-75
2022/02/04 15:23:39;;;;;;;3.77;3.47;;;4.00;99.90;;;;;;6286460;28;20292;-75
2022/02/04 15:26:45;;;;;;;3.57;3.10;;;4.00;99.90;;;;;;6279290;28;20270;-76
2022/02/04 15:29:52;;;;;;;4.43;2.80;;;4.00;99.90;;;;;;6285925;28;20301;-76
2022/02/04 15:32:58;;;;;;;3.27;3.17;;;4.00;99.90;;;;;;6286539;28;20589;-76
2022/02/04 15:36:03;;;;;;;3.50;3.30;;;4.00;99.90;;;;;;6286972;28;20269;-75
2022/02/04 15:39:12;;;;;;;3.40;3.30;;;4.00;99.90;;;;;;6286273;28;20318;-76
2022/02/04 15:42:24;;;;;;;3.77;3.43;;;4.00;99.90;;;;;;6286005;28;20298;-76
2022/02/04 15:46:02;;;;;;;4.00;3.33;;;4.00;99.90;;;;;;6285990;28;20274;-76
2022/02/04 15:52:47;;;;;;;4.17;3.90;;;4.10;99.90;;;;;;6253759;28;20463;-75
2022/02/04 15:59:56;;;;;;;4.53;4.13;;;4.10;99.90;;;;;;6285390;28;20298;-75
2022/02/04 16:03:20;;;;;;;4.40;4.10;;;4.10;99.90;;;;;;6301088;28;20417;-75
2022/02/04 16:06:26;;;;;;;4.70;4.13;;;4.10;99.90;;;;;;6311556;28;20281;-75
2022/02/04 16:09:31;;;;;;;4.00;3.63;;;4.10;99.90;;;;;;6310632;28;20362;-76
2022/02/04 16:12:50;;;;;;;6.83;4.43;;;4.10;99.90;;;;;;6325690;28;20292;-75
2022/02/04 16:16:01;;;;;;;3.90;3.33;;;4.10;99.90;;;;;;6311012;28;20273;-75
2022/02/04 16:19:14;;;;;;;5.50;4.40;;;4.10;99.90;;;;;;6310790;28;20575;-75
2022/02/04 16:22:32;;;;;;;4.87;4.43;;;4.10;99.90;;;;;;6310745;28;20581;-76
2022/02/04 16:25:54;;;;;;;4.43;4.10;;;4.20;99.90;;;;;;6310630;28;20272;-75
2022/02/04 16:29:00;;;;;;;6.80;4.40;;;4.20;99.90;;;;;;6310410;28;20298;-75
2022/02/04 16:32:08;;;;;;;4.60;4.17;;;4.10;99.90;;;;;;6310886;28;20285;-75
2022/02/04 16:35:14;;;;;;;4.83;4.43;;;4.20;99.90;;;;;;6311027;28;20273;-77
2022/02/04 16:38:21;;;;;;;6.60;4.87;;;4.20;99.90;;;;;;6310707;28;20293;-76
2022/02/04 16:41:32;;;;;;;5.33;4.83;;;4.20;99.90;;;;;;6315679;28;20576;-75
2022/02/04 16:44:38;;;;;;;6.20;4.90;;;4.20;99.90;;;;;;6315028;28;20297;-76
2022/02/04 16:47:44;;;;;;;4.97;4.57;;;4.20;99.90;;;;;;6315521;28;20601;-76
2022/02/04 16:50:50;;;;;;;7.73;4.40;;;4.20;99.90;;;;;;6315126;28;20451;-77
2022/02/04 16:53:55;;;;;;;5.53;4.50;;;4.20;99.90;;;;;;6315739;28;20334;-76
2022/02/04 16:57:03;;;;;;;5.93;4.47;;;4.20;99.90;;;;;;6315207;28;20265;-76
2022/02/04 17:00:20;;;;;;;5.73;4.80;;;4.20;99.90;;;;;;6314971;28;20560;-75
2022/02/04 17:03:27;;;;;;;4.50;4.10;;;4.20;99.90;;;;;;6315514;28;20305;-74
2022/02/04 17:06:39;;;;;;;7.37;4.67;;;4.20;99.90;;;;;;6315360;28;20274;-76
2022/02/04 17:09:48;;;;;;;6.47;4.13;;;4.20;99.90;;;;;;6314246;28;20298;-74
2022/02/04 17:12:59;;;;;;;5.83;4.63;;;4.30;99.90;;;;;;6297141;28;20301;-76
2022/02/04 17:16:05;;;;;;;5.00;4.53;;;4.20;99.90;;;;;;6315025;28;20553;-76
2022/02/04 17:19:13;;;;;;;7.03;4.37;;;4.20;99.90;;;;;;6314689;28;20310;-75
2022/02/04 17:22:19;;;;;;;4.17;3.77;;;4.30;99.90;;;;;;6314145;28;20310;-77
2022/02/04 17:25:27;;;;;;;4.27;3.93;;;4.30;99.90;;;;;;6314465;28;20277;-76
2022/02/04 17:28:32;;;;;;;5.97;4.20;;;4.20;99.90;;;;;;6314653;28;20297;-76
2022/02/04 17:31:38;;;;;;;3.80;3.50;;;4.20;99.90;;;;;;6314126;28;20273;-76
2022/02/04 17:34:45;;;;;;;4.10;3.40;;;4.30;99.90;;;;;;6314840;28;20309;-75
2022/02/04 17:37:52;;;;;;;4.03;3.67;;;4.20;99.90;;;;;;6314100;28;20293;-75
2022/02/04 17:40:58;;;;;;;3.70;3.50;;;4.20;99.90;;;;;;6313815;28;20274;-76
2022/02/04 17:44:03;;;;;;;4.90;3.30;;;4.20;99.90;;;;;;6313708;28;20612;-75
2022/02/04 17:47:08;;;;;;;2.97;2.87;;;4.20;99.90;;;;;;6313991;28;20269;-75
2022/02/04 17:50:21;;;;;;;4.07;3.87;;;4.20;99.90;;;;;;6314862;28;20451;-76
2022/02/04 17:53:33;;;;;;;2.70;2.57;;;4.20;99.90;;;;;;6312897;28;20310;-75
2022/02/04 17:56:50;;;;;;;3.50;3.30;;;4.20;99.90;;;;;;6314382;28;20273;-76
2022/02/04 18:00:31;;;;;;;2.93;2.80;;;4.20;99.90;;;;;;6313542;28;20303;-77
2022/02/04 18:05:15;;;;;;;3.03;2.93;;;4.20;99.90;;;;;;6314659;28;20298;-76
2022/02/04 18:07:11;;;;;;;3.40;3.30;;;4.30;99.90;;;;;;6313581;28;20285;-76
2022/02/04 18:10:18;;;;;;;3.43;3.00;;;4.30;99.90;;;;;;6313468;28;20266;-75
2022/02/04 18:13:24;;;;;;;3.70;3.50;;;4.20;99.90;;;;;;6313290;28;20298;-76
2022/02/04 18:16:29;;;;;;;3.27;3.03;;;4.20;99.90;;;;;;6313014;28;20268;-75
2022/02/04 18:19:35;;;;;;;3.27;3.03;;;4.20;99.90;;;;;;6313097;28;20297;-76
2022/02/04 18:22:44;;;;;;;3.10;3.00;;;4.20;99.90;;;;;;6312765;28;20457;-75
2022/02/04 18:25:50;;;;;;;3.17;3.07;;;4.20;99.90;;;;;;6313747;28;20275;-75
2022/02/04 18:28:55;;;;;;;3.10;3.00;;;4.20;99.90;;;;;;6312767;28;20297;-75
2022/02/04 18:32:00;;;;;;;3.47;3.20;;;4.20;99.90;;;;;;6312161;28;20582;-76
2022/02/04 18:35:07;;;;;;;3.50;3.30;;;4.20;99.90;;;;;;6312996;28;20277;-76
2022/02/04 18:38:18;;;;;;;3.33;3.17;;;4.20;99.90;;;;;;6312612;28;20386;-75
2022/02/04 18:44:50;;;;;;;3.33;3.03;;;4.20;99.90;;;;;;6312580;28;20302;-76
2022/02/04 18:47:59;;;;;;;3.30;3.10;;;4.20;99.90;;;;;;6312081;28;20313;-75
2022/02/04 18:51:21;;;;;;;3.30;3.13;;;4.20;99.90;;;;;;6312285;28;20270;-75
2022/02/04 18:54:43;;;;;;;2.63;2.53;;;4.20;99.90;;;;;;6312476;28;20305;-75
2022/02/04 18:57:48;;;;;;;3.00;2.80;;;4.20;99.90;;;;;;6312492;28;20326;-75
2022/02/04 19:00:56;;;;;;;3.03;2.73;;;4.20;99.90;;;;;;6311781;28;20309;-75
2022/02/04 19:04:05;;;;;;;4.45;4.18;;;4.10;99.90;;;;;;6309925;28;20805;-75
2022/02/04 19:07:16;;;;;;;4.33;3.93;;;4.20;99.90;;;;;;6311891;28;20274;-75
2022/02/04 19:10:22;;;;;;;3.53;3.30;;;4.20;99.90;;;;;;6312587;28;20467;-75
2022/02/04 19:13:38;;;;;;;3.30;3.10;;;4.20;99.90;;;;;;6312201;28;20599;-76
2022/02/04 19:16:53;;;;;;;3.13;2.93;;;4.20;99.90;;;;;;6312525;28;20278;-76
2022/02/04 19:20:03;;;;;;;3.30;3.20;;;4.10;99.90;;;;;;6312259;28;20305;-75
2022/02/04 19:23:22;;;;;;;3.50;3.40;;;4.10;99.90;;;;;;6311333;28;20297;-74
2022/02/04 19:26:28;;;;;;;4.10;1.87;;;4.10;99.90;;;;;;6312483;28;20273;-76
2022/02/04 19:29:36;;;;;;;1.47;1.47;;;4.00;99.90;;;;;;6311259;28;20297;-75
2022/02/04 19:32:41;;;;;;;2.03;1.93;;;3.70;99.90;;;;;;6311433;28;20293;-75
2022/02/04 19:35:48;;;;;;;1.70;1.50;;;3.60;99.90;;;;;;6311973;28;20277;-74
2022/02/04 19:38:53;;;;;;;1.20;1.20;;;3.50;99.90;;;;;;6311538;28;20293;-75
2022/02/04 19:42:04;;;;;;;1.40;1.40;;;3.50;99.90;;;;;;6311118;28;20534;-76
2022/02/04 19:45:15;;;;;;;1.47;1.40;;;3.40;99.90;;;;;;6311522;28;20597;-76
2022/02/04 19:48:26;;;;;;;1.23;1.07;;;3.40;99.90;;;;;;6311988;28;20297;-75
2022/02/04 19:51:37;;;;;;;1.63;1.30;;;3.30;99.90;;;;;;6312060;28;20449;-76
2022/02/04 19:55:07;;;;;;;1.50;1.40;;;3.30;99.90;;;;;;6311628;28;20576;-75
2022/02/04 20:25:29;;;;;;;1.60;1.60;;;2.90;99.90;;;;;;6312236;28;20291;-77
2022/02/04 20:28:35;;;;;;;1.40;1.30;;;2.90;99.90;;;;;;6312890;28;20299;-77
2022/02/04 20:31:42;;;;;;;3.00;1.30;;;2.90;99.90;;;;;;6315531;28;20272;-77
2022/02/04 20:34:47;;;;;;;1.37;1.37;;;2.90;99.90;;;;;;6312267;28;20318;-77
2022/02/04 20:37:53;;;;;;;1.50;1.50;;;2.90;99.90;;;;;;6311904;28;20296;-77
2022/02/04 20:41:08;;;;;;;2.53;1.47;;;2.90;99.90;;;;;;6311411;28;20462;-79
2022/02/04 20:44:14;;;;;;;2.10;1.50;;;2.80;99.90;;;;;;6311645;28;20300;-77
2022/02/04 20:47:22;;;;;;;2.43;1.50;;;2.80;99.90;;;;;;6311948;28;20296;-76
2022/02/04 20:50:29;;;;;;;1.57;1.47;;;2.70;99.90;;;;;;6311043;28;20290;-76
2022/02/04 20:53:36;;;;;;;1.60;1.33;;;2.70;99.90;;;;;;6311618;28;20304;-76
2022/02/04 20:56:42;;;;;;;2.17;1.60;;;2.70;99.90;;;;;;6311085;28;20402;-76
2022/02/04 20:59:48;;;;;;;3.60;1.40;;;2.70;99.90;;;;;;6310789;28;20302;-75
2022/02/04 21:02:57;;;;;;;1.60;1.50;;;2.60;99.90;;;;;;6309576;28;20299;-76
2022/02/04 21:06:11;;;;;;;2.57;1.53;;;2.60;99.90;;;;;;6310429;28;20294;-76
2022/02/04 21:16:02;;;;;;;1.77;1.70;;;2.50;99.90;;;;;;6286661;28;20275;-76
2022/02/04 21:19:12;;;;;;;1.70;1.60;;;2.40;99.90;;;;;;6286056;28;20292;-76